SZP weather

Public forecast

Using degrees Fahrenheit for public forecast. Weather courtesy of forecast.io.

Closest aviation weather report (METAR) to Santa Paula Airport

Closest report is Camarillo Airport, 8.2 nm (15.2 km) SSW. Retrieved 2020/08/13 15:55 UTC (58 minutes ago):

KCMA 131555Z 00000KT 10SM CLR 23/13 A2992 RMK AO2 SLP140 T02280133

Closest aviation forecast (TAF) to Santa Paula Airport

Closest forecast is Camarillo Airport, 8.2 nm (15.2 km) SSW. Retrieved 2020/08/13 12:27 UTC (4 hours ago):

TAF KCMA 131127Z 1312/1412 VRB03KT P6SM VCSH BKN080 BKN120 FM131600 VRB03KT P6SM BKN120 FM131900 23010KT P6SM BKN150 FM140300 VRB03KT P6SM SCT150